sensor_id;sensor_type;location;lat;lon;timestamp;P1;durP1;ratioP1;P2;durP2;ratioP2
26478;SDS011;14163;-26.142;27.992;2022-09-02T00:01:45;14.30;;;9.70;;
26478;SDS011;14163;-26.142;27.992;2022-09-02T00:04:16;9.40;;;8.10;;
26478;SDS011;14163;-26.142;27.992;2022-09-02T00:06:48;10.70;;;8.80;;
26478;SDS011;14163;-26.142;27.992;2022-09-02T00:09:19;12.00;;;8.30;;
26478;SDS011;14163;-26.142;27.992;2022-09-02T00:11:50;14.40;;;9.60;;
26478;SDS011;14163;-26.142;27.992;2022-09-02T00:14:23;13.40;;;8.50;;
26478;SDS011;14163;-26.142;27.992;2022-09-02T00:16:55;11.67;;;8.73;;
26478;SDS011;14163;-26.142;27.992;2022-09-02T00:19:25;11.40;;;9.00;;
26478;SDS011;14163;-26.142;27.992;2022-09-02T00:21:56;13.90;;;9.40;;
26478;SDS011;14163;-26.142;27.992;2022-09-02T00:24:26;11.63;;;8.83;;
26478;SDS011;14163;-26.142;27.992;2022-09-02T00:26:56;15.53;;;10.07;;
26478;SDS011;14163;-26.142;27.992;2022-09-02T00:29:25;12.67;;;9.60;;
26478;SDS011;14163;-26.142;27.992;2022-09-02T00:31:57;11.47;;;8.97;;
26478;SDS011;14163;-26.142;27.992;2022-09-02T00:34:26;10.43;;;8.80;;
26478;SDS011;14163;-26.142;27.992;2022-09-02T00:36:55;11.03;;;8.43;;
26478;SDS011;14163;-26.142;27.992;2022-09-02T00:39:25;12.93;;;9.20;;
26478;SDS011;14163;-26.142;27.992;2022-09-02T00:41:54;12.30;;;8.00;;
26478;SDS011;14163;-26.142;27.992;2022-09-02T00:44:23;11.17;;;9.40;;
26478;SDS011;14163;-26.142;27.992;2022-09-02T00:46:52;9.57;;;8.67;;
26478;SDS011;14163;-26.142;27.992;2022-09-02T00:49:24;13.87;;;8.53;;
26478;SDS011;14163;-26.142;27.992;2022-09-02T00:51:57;10.77;;;9.67;;
26478;SDS011;14163;-26.142;27.992;2022-09-02T00:54:30;13.03;;;10.13;;
26478;SDS011;14163;-26.142;27.992;2022-09-02T00:57:03;12.40;;;9.47;;
26478;SDS011;14163;-26.142;27.992;2022-09-02T00:59:39;12.50;;;8.27;;
26478;SDS011;14163;-26.142;27.992;2022-09-02T01:02:13;15.03;;;9.30;;
26478;SDS011;14163;-26.142;27.992;2022-09-02T01:04:45;13.10;;;9.40;;
26478;SDS011;14163;-26.142;27.992;2022-09-02T01:07:14;18.10;;;10.13;;
26478;SDS011;14163;-26.142;27.992;2022-09-02T01:09:44;14.47;;;9.40;;
26478;SDS011;14163;-26.142;27.992;2022-09-02T01:12:13;11.20;;;10.07;;
26478;SDS011;14163;-26.142;27.992;2022-09-02T01:14:42;14.00;;;10.63;;
26478;SDS011;14163;-26.142;27.992;2022-09-02T01:17:11;13.40;;;9.73;;
26478;SDS011;14163;-26.142;27.992;2022-09-02T01:19:46;13.37;;;9.73;;
26478;SDS011;14163;-26.142;27.992;2022-09-02T01:22:21;12.60;;;10.60;;
26478;SDS011;14163;-26.142;27.992;2022-09-02T01:24:51;12.47;;;11.17;;
26478;SDS011;14163;-26.142;27.992;2022-09-02T01:27:22;12.20;;;10.27;;
26478;SDS011;14163;-26.142;27.992;2022-09-02T01:29:53;9.37;;;8.43;;
26478;SDS011;14163;-26.142;27.992;2022-09-02T01:32:24;14.33;;;8.73;;
26478;SDS011;14163;-26.142;27.992;2022-09-02T01:34:54;10.13;;;8.40;;
26478;SDS011;14163;-26.142;27.992;2022-09-02T01:37:26;12.00;;;8.27;;
26478;SDS011;14163;-26.142;27.992;2022-09-02T01:39:56;11.57;;;8.33;;
26478;SDS011;14163;-26.142;27.992;2022-09-02T01:42:25;9.00;;;7.90;;
26478;SDS011;14163;-26.142;27.992;2022-09-02T01:44:55;13.80;;;8.33;;
26478;SDS011;14163;-26.142;27.992;2022-09-02T01:47:24;10.77;;;8.20;;
26478;SDS011;14163;-26.142;27.992;2022-09-02T01:49:54;10.50;;;7.87;;
26478;SDS011;14163;-26.142;27.992;2022-09-02T01:52:24;11.17;;;8.20;;
26478;SDS011;14163;-26.142;27.992;2022-09-02T01:54:56;11.97;;;8.50;;
26478;SDS011;14163;-26.142;27.992;2022-09-02T01:57:25;14.53;;;8.13;;
26478;SDS011;14163;-26.142;27.992;2022-09-02T01:59:55;12.27;;;8.30;;
26478;SDS011;14163;-26.142;27.992;2022-09-02T02:02:26;11.10;;;8.87;;
26478;SDS011;14163;-26.142;27.992;2022-09-02T02:04:55;9.20;;;8.30;;
26478;SDS011;14163;-26.142;27.992;2022-09-02T02:07:25;15.13;;;9.10;;
26478;SDS011;14163;-26.142;27.992;2022-09-02T02:09:56;11.20;;;8.70;;
26478;SDS011;14163;-26.142;27.992;2022-09-02T02:12:25;9.90;;;8.13;;
26478;SDS011;14163;-26.142;27.992;2022-09-02T02:14:54;11.93;;;8.17;;
26478;SDS011;14163;-26.142;27.992;2022-09-02T02:17:23;10.77;;;7.40;;
26478;SDS011;14163;-26.142;27.992;2022-09-02T02:19:52;11.67;;;7.60;;
26478;SDS011;14163;-26.142;27.992;2022-09-02T02:22:22;9.57;;;7.50;;
26478;SDS011;14163;-26.142;27.992;2022-09-02T02:24:53;13.50;;;8.57;;
26478;SDS011;14163;-26.142;27.992;2022-09-02T02:27:22;14.50;;;8.23;;
26478;SDS011;14163;-26.142;27.992;2022-09-02T02:29:51;11.13;;;7.83;;
26478;SDS011;14163;-26.142;27.992;2022-09-02T02:32:21;11.03;;;8.20;;
26478;SDS011;14163;-26.142;27.992;2022-09-02T02:34:51;13.83;;;8.33;;
26478;SDS011;14163;-26.142;27.992;2022-09-02T02:37:21;9.60;;;8.17;;
26478;SDS011;14163;-26.142;27.992;2022-09-02T02:39:50;10.40;;;7.67;;
26478;SDS011;14163;-26.142;27.992;2022-09-02T02:42:21;17.23;;;8.67;;
26478;SDS011;14163;-26.142;27.992;2022-09-02T02:44:50;10.33;;;7.57;;
26478;SDS011;14163;-26.142;27.992;2022-09-02T02:47:19;11.17;;;7.60;;
26478;SDS011;14163;-26.142;27.992;2022-09-02T02:49:49;9.47;;;7.70;;
26478;SDS011;14163;-26.142;27.992;2022-09-02T02:52:19;11.33;;;8.30;;
26478;SDS011;14163;-26.142;27.992;2022-09-02T02:54:48;9.73;;;7.63;;
26478;SDS011;14163;-26.142;27.992;2022-09-02T02:57:19;10.13;;;8.30;;
26478;SDS011;14163;-26.142;27.992;2022-09-02T02:59:48;8.83;;;7.43;;
26478;SDS011;14163;-26.142;27.992;2022-09-02T03:02:17;9.50;;;7.47;;
26478;SDS011;14163;-26.142;27.992;2022-09-02T03:04:46;11.60;;;8.20;;
26478;SDS011;14163;-26.142;27.992;2022-09-02T03:07:19;12.83;;;7.20;;
26478;SDS011;14163;-26.142;27.992;2022-09-02T03:09:48;11.90;;;7.43;;
26478;SDS011;14163;-26.142;27.992;2022-09-02T03:12:19;12.23;;;8.10;;
26478;SDS011;14163;-26.142;27.992;2022-09-02T03:14:48;13.83;;;8.13;;
26478;SDS011;14163;-26.142;27.992;2022-09-02T03:17:18;10.10;;;8.30;;
26478;SDS011;14163;-26.142;27.992;2022-09-02T03:19:47;11.50;;;8.67;;
26478;SDS011;14163;-26.142;27.992;2022-09-02T03:22:17;8.80;;;7.67;;
26478;SDS011;14163;-26.142;27.992;2022-09-02T03:24:46;18.73;;;8.90;;
26478;SDS011;14163;-26.142;27.992;2022-09-02T03:27:15;13.23;;;8.73;;
26478;SDS011;14163;-26.142;27.992;2022-09-02T03:29:46;11.10;;;7.70;;
26478;SDS011;14163;-26.142;27.992;2022-09-02T03:32:16;14.90;;;7.83;;
26478;SDS011;14163;-26.142;27.992;2022-09-02T03:34:45;11.90;;;8.90;;
26478;SDS011;14163;-26.142;27.992;2022-09-02T03:37:14;13.37;;;8.07;;
26478;SDS011;14163;-26.142;27.992;2022-09-02T03:39:44;11.47;;;8.20;;
26478;SDS011;14163;-26.142;27.992;2022-09-02T03:42:13;14.63;;;7.80;;
26478;SDS011;14163;-26.142;27.992;2022-09-02T03:44:42;8.10;;;7.30;;
26478;SDS011;14163;-26.142;27.992;2022-09-02T03:47:13;10.57;;;8.47;;
26478;SDS011;14163;-26.142;27.992;2022-09-02T03:49:46;15.40;;;7.90;;
26478;SDS011;14163;-26.142;27.992;2022-09-02T03:52:15;9.67;;;8.50;;
26478;SDS011;14163;-26.142;27.992;2022-09-02T03:54:44;8.30;;;7.50;;
26478;SDS011;14163;-26.142;27.992;2022-09-02T03:57:13;9.43;;;7.20;;
26478;SDS011;14163;-26.142;27.992;2022-09-02T03:59:43;8.57;;;7.47;;
26478;SDS011;14163;-26.142;27.992;2022-09-02T04:02:14;9.07;;;8.07;;
26478;SDS011;14163;-26.142;27.992;2022-09-02T04:04:43;8.80;;;7.40;;
26478;SDS011;14163;-26.142;27.992;2022-09-02T04:07:13;10.43;;;8.73;;
26478;SDS011;14163;-26.142;27.992;2022-09-02T04:09:42;9.27;;;7.53;;
26478;SDS011;14163;-26.142;27.992;2022-09-02T04:12:11;13.13;;;8.47;;
26478;SDS011;14163;-26.142;27.992;2022-09-02T04:14:40;11.33;;;8.70;;
26478;SDS011;14163;-26.142;27.992;2022-09-02T04:17:10;13.30;;;8.70;;
26478;SDS011;14163;-26.142;27.992;2022-09-02T04:19:41;9.50;;;8.07;;
26478;SDS011;14163;-26.142;27.992;2022-09-02T04:22:10;9.73;;;8.10;;
26478;SDS011;14163;-26.142;27.992;2022-09-02T04:24:39;18.43;;;8.47;;
26478;SDS011;14163;-26.142;27.992;2022-09-02T04:27:08;11.07;;;8.40;;
26478;SDS011;14163;-26.142;27.992;2022-09-02T04:29:38;9.83;;;7.73;;
26478;SDS011;14163;-26.142;27.992;2022-09-02T04:32:07;10.33;;;8.10;;
26478;SDS011;14163;-26.142;27.992;2022-09-02T04:34:36;12.87;;;9.20;;
26478;SDS011;14163;-26.142;27.992;2022-09-02T04:37:07;12.80;;;8.57;;
26478;SDS011;14163;-26.142;27.992;2022-09-02T04:39:38;9.37;;;7.90;;
26478;SDS011;14163;-26.142;27.992;2022-09-02T04:42:07;10.50;;;8.30;;
26478;SDS011;14163;-26.142;27.992;2022-09-02T04:44:36;12.70;;;9.07;;
26478;SDS011;14163;-26.142;27.992;2022-09-02T04:47:05;11.83;;;9.47;;
26478;SDS011;14163;-26.142;27.992;2022-09-02T04:49:34;11.30;;;8.43;;
26478;SDS011;14163;-26.142;27.992;2022-09-02T04:52:03;10.53;;;8.63;;
26478;SDS011;14163;-26.142;27.992;2022-09-02T04:54:35;9.97;;;8.33;;
26478;SDS011;14163;-26.142;27.992;2022-09-02T04:57:04;14.97;;;9.40;;
26478;SDS011;14163;-26.142;27.992;2022-09-02T04:59:33;12.07;;;8.30;;
26478;SDS011;14163;-26.142;27.992;2022-09-02T05:02:03;14.50;;;9.17;;
26478;SDS011;14163;-26.142;27.992;2022-09-02T05:04:33;17.13;;;9.40;;
26478;SDS011;14163;-26.142;27.992;2022-09-02T05:07:02;12.27;;;9.13;;
26478;SDS011;14163;-26.142;27.992;2022-09-02T05:09:31;15.63;;;8.97;;
26478;SDS011;14163;-26.142;27.992;2022-09-02T05:12:03;12.77;;;8.97;;
26478;SDS011;14163;-26.142;27.992;2022-09-02T05:14:32;10.10;;;8.63;;
26478;SDS011;14163;-26.142;27.992;2022-09-02T05:17:01;14.27;;;9.00;;
26478;SDS011;14163;-26.142;27.992;2022-09-02T05:19:31;12.80;;;8.80;;
26478;SDS011;14163;-26.142;27.992;2022-09-02T05:22:00;10.33;;;7.97;;
26478;SDS011;14163;-26.142;27.992;2022-09-02T05:24:29;9.20;;;8.30;;
26478;SDS011;14163;-26.142;27.992;2022-09-02T05:26:59;13.60;;;8.43;;
26478;SDS011;14163;-26.142;27.992;2022-09-02T05:29:30;9.53;;;8.50;;
26478;SDS011;14163;-26.142;27.992;2022-09-02T05:31:59;9.03;;;7.93;;
26478;SDS011;14163;-26.142;27.992;2022-09-02T05:34:29;12.83;;;8.40;;
26478;SDS011;14163;-26.142;27.992;2022-09-02T05:36:58;12.07;;;7.80;;
26478;SDS011;14163;-26.142;27.992;2022-09-02T05:39:27;13.40;;;8.33;;
26478;SDS011;14163;-26.142;27.992;2022-09-02T05:41:57;11.60;;;7.93;;
26478;SDS011;14163;-26.142;27.992;2022-09-02T05:44:26;9.80;;;8.60;;
26478;SDS011;14163;-26.142;27.992;2022-09-02T05:46:57;13.93;;;8.13;;
26478;SDS011;14163;-26.142;27.992;2022-09-02T05:49:26;11.07;;;8.17;;
26478;SDS011;14163;-26.142;27.992;2022-09-02T05:51:56;11.57;;;7.90;;
26478;SDS011;14163;-26.142;27.992;2022-09-02T05:54:27;13.60;;;8.37;;
26478;SDS011;14163;-26.142;27.992;2022-09-02T05:56:58;11.30;;;8.33;;
26478;SDS011;14163;-26.142;27.992;2022-09-02T05:59:31;12.13;;;8.60;;
26478;SDS011;14163;-26.142;27.992;2022-09-02T06:02:01;12.60;;;8.37;;
26478;SDS011;14163;-26.142;27.992;2022-09-02T06:04:31;11.67;;;8.57;;
26478;SDS011;14163;-26.142;27.992;2022-09-02T06:07:03;15.90;;;8.37;;
26478;SDS011;14163;-26.142;27.992;2022-09-02T06:09:33;12.87;;;9.27;;
26478;SDS011;14163;-26.142;27.992;2022-09-02T06:12:02;9.20;;;7.67;;
26478;SDS011;14163;-26.142;27.992;2022-09-02T06:14:34;10.60;;;8.20;;
26478;SDS011;14163;-26.142;27.992;2022-09-02T06:17:04;11.23;;;7.97;;
26478;SDS011;14163;-26.142;27.992;2022-09-02T06:19:34;12.17;;;8.20;;
26478;SDS011;14163;-26.142;27.992;2022-09-02T06:22:04;11.83;;;7.93;;
26478;SDS011;14163;-26.142;27.992;2022-09-02T06:24:33;11.73;;;7.80;;
26478;SDS011;14163;-26.142;27.992;2022-09-02T06:27:03;10.77;;;8.07;;
26478;SDS011;14163;-26.142;27.992;2022-09-02T06:29:34;9.20;;;7.47;;
26478;SDS011;14163;-26.142;27.992;2022-09-02T06:32:03;9.47;;;7.50;;
26478;SDS011;14163;-26.142;27.992;2022-09-02T06:34:33;12.37;;;8.30;;
26478;SDS011;14163;-26.142;27.992;2022-09-02T06:37:04;8.67;;;7.80;;
26478;SDS011;14163;-26.142;27.992;2022-09-02T06:39:33;13.87;;;7.47;;
26478;SDS011;14163;-26.142;27.992;2022-09-02T06:42:03;13.87;;;8.80;;
26478;SDS011;14163;-26.142;27.992;2022-09-02T06:44:34;13.30;;;8.07;;
26478;SDS011;14163;-26.142;27.992;2022-09-02T06:47:04;12.73;;;8.80;;
26478;SDS011;14163;-26.142;27.992;2022-09-02T06:49:33;12.97;;;8.77;;
26478;SDS011;14163;-26.142;27.992;2022-09-02T06:52:02;18.20;;;9.17;;
26478;SDS011;14163;-26.142;27.992;2022-09-02T06:54:32;16.80;;;9.73;;
26478;SDS011;14163;-26.142;27.992;2022-09-02T06:57:01;12.70;;;8.27;;
26478;SDS011;14163;-26.142;27.992;2022-09-02T06:59:31;16.77;;;9.57;;
26478;SDS011;14163;-26.142;27.992;2022-09-02T07:02:02;16.23;;;9.23;;
26478;SDS011;14163;-26.142;27.992;2022-09-02T07:04:32;14.33;;;10.27;;
26478;SDS011;14163;-26.142;27.992;2022-09-02T07:07:18;15.53;;;9.73;;
26478;SDS011;14163;-26.142;27.992;2022-09-02T07:09:47;11.93;;;9.20;;
26478;SDS011;14163;-26.142;27.992;2022-09-02T07:12:16;13.83;;;9.20;;
26478;SDS011;14163;-26.142;27.992;2022-09-02T07:14:47;15.53;;;9.53;;
26478;SDS011;14163;-26.142;27.992;2022-09-02T07:17:16;12.47;;;9.07;;
26478;SDS011;14163;-26.142;27.992;2022-09-02T07:19:46;16.77;;;10.73;;
26478;SDS011;14163;-26.142;27.992;2022-09-02T07:22:16;12.00;;;9.80;;
26478;SDS011;14163;-26.142;27.992;2022-09-02T07:24:45;15.97;;;9.63;;
26478;SDS011;14163;-26.142;27.992;2022-09-02T07:27:14;16.73;;;9.23;;
26478;SDS011;14163;-26.142;27.992;2022-09-02T07:29:44;16.30;;;9.80;;
26478;SDS011;14163;-26.142;27.992;2022-09-02T07:32:16;16.67;;;9.70;;
26478;SDS011;14163;-26.142;27.992;2022-09-02T07:34:46;15.10;;;9.63;;
26478;SDS011;14163;-26.142;27.992;2022-09-02T07:37:16;19.03;;;9.30;;
26478;SDS011;14163;-26.142;27.992;2022-09-02T07:39:45;15.33;;;10.30;;
26478;SDS011;14163;-26.142;27.992;2022-09-02T07:42:14;22.83;;;9.60;;
26478;SDS011;14163;-26.142;27.992;2022-09-02T07:44:44;15.37;;;9.10;;
26478;SDS011;14163;-26.142;27.992;2022-09-02T07:47:15;15.87;;;9.87;;
26478;SDS011;14163;-26.142;27.992;2022-09-02T07:49:44;13.20;;;9.27;;
26478;SDS011;14163;-26.142;27.992;2022-09-02T07:52:14;16.27;;;9.90;;
26478;SDS011;14163;-26.142;27.992;2022-09-02T07:54:43;17.63;;;10.10;;
26478;SDS011;14163;-26.142;27.992;2022-09-02T07:57:12;16.77;;;10.20;;
26478;SDS011;14163;-26.142;27.992;2022-09-02T07:59:41;15.63;;;10.10;;
26478;SDS011;14163;-26.142;27.992;2022-09-02T08:02:12;11.73;;;9.07;;
26478;SDS011;14163;-26.142;27.992;2022-09-02T08:04:45;16.77;;;10.03;;
26478;SDS011;14163;-26.142;27.992;2022-09-02T08:07:15;18.40;;;10.00;;
26478;SDS011;14163;-26.142;27.992;2022-09-02T08:09:49;16.73;;;10.03;;
26478;SDS011;14163;-26.142;27.992;2022-09-02T08:12:18;14.77;;;10.40;;
26478;SDS011;14163;-26.142;27.992;2022-09-02T08:14:48;19.70;;;10.60;;
26478;SDS011;14163;-26.142;27.992;2022-09-02T08:17:19;13.40;;;9.33;;
26478;SDS011;14163;-26.142;27.992;2022-09-02T08:19:48;12.77;;;10.20;;
26478;SDS011;14163;-26.142;27.992;2022-09-02T08:22:17;16.80;;;10.20;;
26478;SDS011;14163;-26.142;27.992;2022-09-02T08:24:46;14.37;;;10.53;;
26478;SDS011;14163;-26.142;27.992;2022-09-02T08:27:15;17.33;;;11.17;;
26478;SDS011;14163;-26.142;27.992;2022-09-02T08:29:45;13.30;;;10.50;;
26478;SDS011;14163;-26.142;27.992;2022-09-02T08:32:14;17.10;;;11.10;;
26478;SDS011;14163;-26.142;27.992;2022-09-02T08:34:45;21.97;;;11.13;;
26478;SDS011;14163;-26.142;27.992;2022-09-02T08:37:14;19.93;;;11.30;;
26478;SDS011;14163;-26.142;27.992;2022-09-02T08:39:44;19.23;;;11.23;;
26478;SDS011;14163;-26.142;27.992;2022-09-02T08:42:16;17.53;;;12.13;;
26478;SDS011;14163;-26.142;27.992;2022-09-02T08:44:49;17.03;;;11.83;;
26478;SDS011;14163;-26.142;27.992;2022-09-02T08:47:22;36.60;;;22.70;;
26478;SDS011;14163;-26.142;27.992;2022-09-02T08:49:58;16.93;;;12.40;;
26478;SDS011;14163;-26.142;27.992;2022-09-02T08:52:31;20.77;;;15.80;;
26478;SDS011;14163;-26.142;27.992;2022-09-02T08:55:06;21.03;;;12.50;;
26478;SDS011;14163;-26.142;27.992;2022-09-02T08:57:41;19.13;;;12.50;;
26478;SDS011;14163;-26.142;27.992;2022-09-02T09:00:14;19.40;;;12.20;;
26478;SDS011;14163;-26.142;27.992;2022-09-02T09:02:48;20.57;;;12.57;;
26478;SDS011;14163;-26.142;27.992;2022-09-02T09:05:30;16.10;;;11.80;;
26478;SDS011;14163;-26.142;27.992;2022-09-02T09:08:11;19.47;;;12.43;;
26478;SDS011;14163;-26.142;27.992;2022-09-02T09:10:48;14.40;;;11.60;;
26478;SDS011;14163;-26.142;27.992;2022-09-02T09:16:27;21.20;;;12.80;;
26478;SDS011;14163;-26.142;27.992;2022-09-02T09:19:05;18.63;;;13.00;;
26478;SDS011;14163;-26.142;27.992;2022-09-02T09:21:41;28.33;;;14.70;;
26478;SDS011;14163;-26.142;27.992;2022-09-02T09:24:17;16.77;;;11.67;;
26478;SDS011;14163;-26.142;27.992;2022-09-02T09:26:53;18.30;;;12.40;;
26478;SDS011;14163;-26.142;27.992;2022-09-02T09:29:22;22.53;;;12.70;;
26478;SDS011;14163;-26.142;27.992;2022-09-02T09:31:53;19.97;;;13.77;;
26478;SDS011;14163;-26.142;27.992;2022-09-02T09:34:44;20.90;;;13.50;;
26478;SDS011;14163;-26.142;27.992;2022-09-02T09:37:30;18.93;;;12.80;;
26478;SDS011;14163;-26.142;27.992;2022-09-02T09:40:01;21.43;;;13.03;;
26478;SDS011;14163;-26.142;27.992;2022-09-02T09:42:56;16.40;;;12.83;;
26478;SDS011;14163;-26.142;27.992;2022-09-02T09:45:27;20.97;;;13.70;;
26478;SDS011;14163;-26.142;27.992;2022-09-02T09:48:11;19.23;;;13.43;;
26478;SDS011;14163;-26.142;27.992;2022-09-02T09:50:48;22.17;;;13.43;;
26478;SDS011;14163;-26.142;27.992;2022-09-02T09:53:33;21.73;;;14.70;;
26478;SDS011;14163;-26.142;27.992;2022-09-02T09:56:03;22.27;;;14.10;;
26478;SDS011;14163;-26.142;27.992;2022-09-02T09:58:41;27.30;;;14.57;;
26478;SDS011;14163;-26.142;27.992;2022-09-02T10:01:12;23.10;;;15.40;;
26478;SDS011;14163;-26.142;27.992;2022-09-02T10:03:47;25.03;;;16.27;;
26478;SDS011;14163;-26.142;27.992;2022-09-02T10:06:20;22.60;;;16.97;;
26478;SDS011;14163;-26.142;27.992;2022-09-02T10:08:53;21.93;;;16.10;;
26478;SDS011;14163;-26.142;27.992;2022-09-02T10:11:24;27.07;;;18.57;;
26478;SDS011;14163;-26.142;27.992;2022-09-02T10:13:57;30.53;;;17.70;;
26478;SDS011;14163;-26.142;27.992;2022-09-02T10:16:30;22.93;;;19.33;;
26478;SDS011;14163;-26.142;27.992;2022-09-02T10:19:13;23.13;;;15.00;;
26478;SDS011;14163;-26.142;27.992;2022-09-02T10:22:04;18.70;;;14.70;;
26478;SDS011;14163;-26.142;27.992;2022-09-02T10:25:01;19.30;;;14.23;;
26478;SDS011;14163;-26.142;27.992;2022-09-02T10:27:42;18.50;;;15.90;;
26478;SDS011;14163;-26.142;27.992;2022-09-02T10:30:18;18.93;;;15.57;;
26478;SDS011;14163;-26.142;27.992;2022-09-02T10:33:01;18.33;;;15.60;;
26478;SDS011;14163;-26.142;27.992;2022-09-02T10:35:44;20.13;;;16.87;;
26478;SDS011;14163;-26.142;27.992;2022-09-02T10:38:21;23.07;;;17.57;;
26478;SDS011;14163;-26.142;27.992;2022-09-02T10:41:07;16.20;;;14.50;;
26478;SDS011;14163;-26.142;27.992;2022-09-02T10:43:52;16.33;;;14.60;;
26478;SDS011;14163;-26.142;27.992;2022-09-02T10:46:33;16.97;;;12.77;;
26478;SDS011;14163;-26.142;27.992;2022-09-02T10:49:12;14.80;;;13.23;;
26478;SDS011;14163;-26.142;27.992;2022-09-02T10:51:51;18.80;;;13.30;;
26478;SDS011;14163;-26.142;27.992;2022-09-02T10:54:33;15.80;;;12.27;;
26478;SDS011;14163;-26.142;27.992;2022-09-02T10:57:13;18.27;;;13.23;;
26478;SDS011;14163;-26.142;27.992;2022-09-02T10:59:47;13.90;;;12.47;;
26478;SDS011;14163;-26.142;27.992;2022-09-02T11:02:23;18.53;;;13.53;;
26478;SDS011;14163;-26.142;27.992;2022-09-02T11:04:57;19.43;;;12.90;;
26478;SDS011;14163;-26.142;27.992;2022-09-02T11:07:29;17.40;;;13.53;;
26478;SDS011;14163;-26.142;27.992;2022-09-02T11:10:04;16.40;;;13.17;;
26478;SDS011;14163;-26.142;27.992;2022-09-02T11:12:43;16.83;;;15.03;;
26478;SDS011;14163;-26.142;27.992;2022-09-02T11:15:16;15.67;;;14.00;;
26478;SDS011;14163;-26.142;27.992;2022-09-02T11:17:50;21.17;;;13.97;;
26478;SDS011;14163;-26.142;27.992;2022-09-02T11:20:28;17.53;;;13.57;;
26478;SDS011;14163;-26.142;27.992;2022-09-02T11:23:03;14.10;;;12.80;;
26478;SDS011;14163;-26.142;27.992;2022-09-02T11:25:44;14.50;;;12.33;;
26478;SDS011;14163;-26.142;27.992;2022-09-02T11:28:28;16.10;;;12.90;;
26478;SDS011;14163;-26.142;27.992;2022-09-02T11:31:04;19.47;;;15.13;;
26478;SDS011;14163;-26.142;27.992;2022-09-02T11:33:44;14.40;;;12.90;;
26478;SDS011;14163;-26.142;27.992;2022-09-02T11:36:18;20.03;;;13.63;;
26478;SDS011;14163;-26.142;27.992;2022-09-02T11:38:49;15.63;;;13.50;;
26478;SDS011;14163;-26.142;27.992;2022-09-02T11:41:24;14.93;;;13.53;;
26478;SDS011;14163;-26.142;27.992;2022-09-02T11:44:00;18.07;;;13.87;;
26478;SDS011;14163;-26.142;27.992;2022-09-02T11:46:47;23.27;;;14.53;;
26478;SDS011;14163;-26.142;27.992;2022-09-02T11:49:48;20.03;;;14.53;;
26478;SDS011;14163;-26.142;27.992;2022-09-02T11:52:36;15.50;;;13.40;;
26478;SDS011;14163;-26.142;27.992;2022-09-02T11:55:19;15.47;;;12.97;;
26478;SDS011;14163;-26.142;27.992;2022-09-02T11:57:51;17.40;;;13.20;;
26478;SDS011;14163;-26.142;27.992;2022-09-02T12:00:28;17.40;;;13.37;;
26478;SDS011;14163;-26.142;27.992;2022-09-02T12:03:09;13.53;;;12.13;;
26478;SDS011;14163;-26.142;27.992;2022-09-02T12:05:49;15.90;;;12.00;;
26478;SDS011;14163;-26.142;27.992;2022-09-02T12:11:34;19.57;;;13.53;;
26478;SDS011;14163;-26.142;27.992;2022-09-02T12:14:06;13.20;;;11.97;;
26478;SDS011;14163;-26.142;27.992;2022-09-02T12:16:57;15.23;;;12.00;;
26478;SDS011;14163;-26.142;27.992;2022-09-02T12:19:41;15.67;;;13.00;;
26478;SDS011;14163;-26.142;27.992;2022-09-02T12:22:30;15.03;;;13.53;;
26478;SDS011;14163;-26.142;27.992;2022-09-02T12:25:03;15.37;;;12.83;;
26478;SDS011;14163;-26.142;27.992;2022-09-02T12:27:47;13.33;;;11.73;;
26478;SDS011;14163;-26.142;27.992;2022-09-02T12:31:07;18.30;;;12.30;;
26478;SDS011;14163;-26.142;27.992;2022-09-02T12:33:35;13.10;;;11.80;;
26478;SDS011;14163;-26.142;27.992;2022-09-02T12:36:05;15.07;;;13.53;;
26478;SDS011;14163;-26.142;27.992;2022-09-02T12:38:36;17.90;;;12.73;;
26478;SDS011;14163;-26.142;27.992;2022-09-02T12:44:18;15.30;;;12.77;;
26478;SDS011;14163;-26.142;27.992;2022-09-02T12:46:58;15.57;;;13.23;;
26478;SDS011;14163;-26.142;27.992;2022-09-02T12:49:39;14.33;;;12.33;;
26478;SDS011;14163;-26.142;27.992;2022-09-02T12:55:09;14.20;;;12.93;;
26478;SDS011;14163;-26.142;27.992;2022-09-02T12:57:47;13.87;;;12.00;;
26478;SDS011;14163;-26.142;27.992;2022-09-02T13:00:24;17.63;;;13.37;;
26478;SDS011;14163;-26.142;27.992;2022-09-02T13:03:00;18.30;;;13.97;;
26478;SDS011;14163;-26.142;27.992;2022-09-02T13:05:46;15.80;;;12.70;;
26478;SDS011;14163;-26.142;27.992;2022-09-02T13:11:50;15.30;;;13.00;;
26478;SDS011;14163;-26.142;27.992;2022-09-02T13:23:20;19.13;;;12.17;;
26478;SDS011;14163;-26.142;27.992;2022-09-02T13:29:17;18.83;;;14.10;;
26478;SDS011;14163;-26.142;27.992;2022-09-02T13:32:20;16.00;;;12.97;;
26478;SDS011;14163;-26.142;27.992;2022-09-02T13:34:51;16.80;;;13.40;;
26478;SDS011;14163;-26.142;27.992;2022-09-02T13:37:27;16.83;;;12.60;;
26478;SDS011;14163;-26.142;27.992;2022-09-02T13:40:00;13.83;;;12.33;;
26478;SDS011;14163;-26.142;27.992;2022-09-02T13:42:34;14.13;;;12.63;;
26478;SDS011;14163;-26.142;27.992;2022-09-02T13:45:10;17.93;;;13.07;;
26478;SDS011;14163;-26.142;27.992;2022-09-02T13:47:41;15.30;;;12.40;;
26478;SDS011;14163;-26.142;27.992;2022-09-02T13:50:12;15.40;;;12.10;;
26478;SDS011;14163;-26.142;27.992;2022-09-02T13:52:44;16.27;;;12.20;;
26478;SDS011;14163;-26.142;27.992;2022-09-02T13:55:17;19.67;;;12.37;;
26478;SDS011;14163;-26.142;27.992;2022-09-02T13:57:49;13.30;;;11.90;;
26478;SDS011;14163;-26.142;27.992;2022-09-02T14:00:28;14.20;;;12.20;;
26478;SDS011;14163;-26.142;27.992;2022-09-02T14:03:00;15.70;;;12.93;;
26478;SDS011;14163;-26.142;27.992;2022-09-02T14:05:33;16.40;;;11.10;;
26478;SDS011;14163;-26.142;27.992;2022-09-02T14:08:04;16.10;;;12.63;;
26478;SDS011;14163;-26.142;27.992;2022-09-02T14:10:40;16.63;;;13.67;;
26478;SDS011;14163;-26.142;27.992;2022-09-02T14:13:10;20.00;;;12.63;;
26478;SDS011;14163;-26.142;27.992;2022-09-02T14:15:41;19.00;;;12.87;;
26478;SDS011;14163;-26.142;27.992;2022-09-02T14:18:14;14.30;;;12.77;;
26478;SDS011;14163;-26.142;27.992;2022-09-02T14:20:55;15.07;;;11.10;;
26478;SDS011;14163;-26.142;27.992;2022-09-02T14:23:26;18.43;;;12.53;;
26478;SDS011;14163;-26.142;27.992;2022-09-02T14:26:00;14.73;;;11.70;;
26478;SDS011;14163;-26.142;27.992;2022-09-02T14:28:32;18.00;;;13.00;;
26478;SDS011;14163;-26.142;27.992;2022-09-02T14:31:02;16.73;;;13.70;;
26478;SDS011;14163;-26.142;27.992;2022-09-02T14:33:37;16.10;;;12.40;;
26478;SDS011;14163;-26.142;27.992;2022-09-02T14:36:08;12.87;;;11.50;;
26478;SDS011;14163;-26.142;27.992;2022-09-02T14:38:55;17.83;;;12.40;;
26478;SDS011;14163;-26.142;27.992;2022-09-02T14:41:40;13.57;;;12.03;;
26478;SDS011;14163;-26.142;27.992;2022-09-02T14:44:15;19.03;;;13.47;;
26478;SDS011;14163;-26.142;27.992;2022-09-02T14:46:50;22.57;;;12.47;;
26478;SDS011;14163;-26.142;27.992;2022-09-02T14:49:23;20.20;;;12.03;;
26478;SDS011;14163;-26.142;27.992;2022-09-02T14:51:55;14.93;;;11.77;;
26478;SDS011;14163;-26.142;27.992;2022-09-02T14:54:32;24.37;;;12.90;;
26478;SDS011;14163;-26.142;27.992;2022-09-02T14:57:05;18.07;;;11.37;;
26478;SDS011;14163;-26.142;27.992;2022-09-02T14:59:48;17.60;;;12.30;;
26478;SDS011;14163;-26.142;27.992;2022-09-02T15:02:22;23.27;;;12.43;;
26478;SDS011;14163;-26.142;27.992;2022-09-02T15:04:57;23.63;;;12.90;;